createdAt,value
2017-12-14T00:02:46.604Z,3.00
2017-12-14T00:07:47.651Z,3.10
2017-12-14T00:12:48.669Z,2.40
2017-12-14T00:17:50.418Z,2.97
2017-12-14T00:22:51.404Z,2.27
2017-12-14T00:27:52.390Z,2.10
2017-12-14T00:32:53.396Z,2.00
2017-12-14T00:37:54.429Z,1.70
2017-12-14T00:42:55.436Z,1.40
2017-12-14T00:47:56.433Z,1.20
2017-12-14T00:52:57.424Z,1.20
2017-12-14T00:57:59.173Z,1.10
2017-12-14T01:03:00.201Z,2.30
2017-12-14T01:08:01.936Z,2.13
2017-12-14T01:13:03.681Z,1.83
2017-12-14T01:18:04.675Z,1.80
2017-12-14T01:23:05.677Z,1.97
2017-12-14T01:28:07.409Z,1.90
2017-12-14T01:33:08.401Z,1.80
2017-12-14T01:38:09.377Z,1.53
2017-12-14T01:43:10.339Z,1.10
2017-12-14T01:48:11.345Z,1.00
2017-12-14T01:53:12.305Z,0.90
2017-12-14T01:58:13.374Z,1.30
2017-12-14T02:03:14.385Z,1.20
2017-12-14T02:08:15.393Z,1.10
2017-12-14T02:13:16.373Z,1.53
2017-12-14T02:18:17.341Z,1.77
2017-12-14T02:23:18.313Z,2.03
2017-12-14T02:28:19.268Z,1.73
2017-12-14T02:33:28.101Z,1.43
2017-12-14T02:38:29.112Z,1.90
2017-12-14T02:43:30.847Z,1.33
2017-12-14T02:48:31.810Z,0.90
2017-12-14T02:53:33.581Z,1.47
2017-12-14T02:58:34.580Z,1.70
2017-12-14T03:03:36.319Z,1.40
2017-12-14T03:08:37.373Z,1.40
2017-12-14T03:13:39.124Z,1.10
2017-12-14T03:18:40.125Z,1.53
2017-12-14T03:23:41.097Z,1.40
2017-12-14T03:28:42.124Z,1.10
2017-12-14T03:33:43.906Z,1.50
2017-12-14T03:38:44.908Z,1.00
2017-12-14T03:43:46.669Z,0.73
2017-12-14T03:48:47.652Z,0.90
2017-12-14T03:53:48.616Z,0.70
2017-12-14T03:58:49.629Z,0.60
2017-12-14T04:03:50.625Z,0.50
2017-12-14T04:08:51.657Z,0.50
2017-12-14T04:13:52.735Z,0.60
2017-12-14T04:18:53.761Z,0.60
2017-12-14T04:23:54.730Z,0.60
2017-12-14T04:28:55.733Z,0.50
2017-12-14T04:33:56.724Z,1.13
2017-12-14T04:38:58.428Z,0.77
2017-12-14T04:44:00.127Z,0.70
2017-12-14T04:49:01.820Z,0.80
2017-12-14T04:54:02.799Z,0.80
2017-12-14T04:59:04.507Z,0.70
2017-12-14T05:04:06.193Z,0.70
2017-12-14T05:09:07.148Z,0.80
2017-12-14T05:14:08.104Z,0.80
2017-12-14T05:19:09.049Z,0.70
2017-12-14T05:24:10.747Z,0.70
2017-12-14T05:29:12.449Z,0.90
2017-12-14T05:34:14.157Z,1.17
2017-12-14T05:39:15.150Z,0.80
2017-12-14T05:44:16.481Z,1.00
2017-12-14T05:49:17.454Z,0.83
2017-12-14T05:54:18.469Z,0.93
2017-12-14T05:59:20.192Z,1.10
2017-12-14T06:04:21.205Z,0.90
2017-12-14T06:09:22.253Z,0.90
2017-12-14T06:14:23.960Z,1.00
2017-12-14T06:19:24.981Z,1.10
2017-12-14T06:24:26.673Z,1.13
2017-12-14T06:29:27.645Z,1.00
2017-12-14T06:34:28.649Z,1.00
2017-12-14T06:39:29.593Z,0.80
2017-12-14T06:44:30.665Z,1.20
2017-12-14T06:49:32.395Z,0.93
2017-12-14T06:54:33.360Z,1.10
2017-12-14T06:59:34.317Z,1.20
2017-12-14T07:04:35.301Z,1.20
2017-12-14T07:09:37.041Z,1.20
2017-12-14T07:14:38.001Z,1.30
2017-12-14T07:19:40.045Z,1.20
2017-12-14T07:24:41.037Z,1.20
2017-12-14T07:29:42.064Z,1.90
2017-12-14T07:34:43.016Z,1.00
2017-12-14T07:39:44.110Z,1.67
2017-12-14T07:44:45.809Z,1.40
2017-12-14T07:49:47.521Z,1.57
2017-12-14T07:54:49.221Z,1.57
2017-12-14T07:59:50.904Z,1.33
2017-12-14T08:04:51.853Z,1.40
2017-12-14T08:09:52.830Z,1.40
2017-12-14T08:14:53.784Z,1.70
2017-12-14T08:19:54.756Z,1.40
2017-12-14T08:24:56.462Z,1.77
2017-12-14T08:29:57.440Z,1.30
2017-12-14T08:34:58.549Z,1.77
2017-12-14T08:39:59.589Z,1.40
2017-12-14T08:45:01.344Z,1.53
2017-12-14T08:50:02.342Z,1.40
2017-12-14T08:55:03.365Z,1.93
2017-12-14T09:00:04.362Z,1.77
2017-12-14T09:05:09.944Z,1.73
2017-12-14T09:10:12.744Z,2.20
2017-12-14T09:15:13.736Z,2.00
2017-12-14T09:20:15.476Z,1.90
2017-12-14T09:25:16.438Z,1.53
2017-12-14T09:30:17.531Z,2.10
2017-12-14T09:35:18.583Z,1.77
2017-12-14T09:40:19.581Z,1.57
2017-12-14T09:45:21.293Z,2.20
2017-12-14T09:50:22.288Z,2.00
2017-12-14T09:55:23.292Z,2.03
2017-12-14T10:00:24.310Z,2.00
2017-12-14T10:05:25.346Z,1.83
2017-12-14T10:10:26.314Z,2.07
2017-12-14T10:15:27.353Z,2.33
2017-12-14T10:20:28.333Z,1.57
2017-12-14T10:25:29.301Z,2.33
2017-12-14T10:30:30.357Z,2.10
2017-12-14T10:35:31.376Z,1.80
2017-12-14T10:40:32.350Z,2.50
2017-12-14T10:45:33.369Z,2.17
2017-12-14T10:50:35.132Z,1.70
2017-12-14T10:55:36.885Z,1.87
2017-12-14T11:00:44.125Z,2.60
2017-12-14T11:05:45.234Z,1.80
2017-12-14T11:10:46.196Z,1.70
2017-12-14T11:15:47.284Z,2.30
2017-12-14T11:20:48.300Z,1.93
2017-12-14T11:25:49.297Z,2.33
2017-12-14T11:30:51.054Z,1.70
2017-12-14T11:35:52.056Z,2.17
2017-12-14T11:40:53.056Z,1.40
2017-12-14T11:45:54.894Z,1.90
2017-12-14T11:50:55.884Z,2.03
2017-12-14T11:55:56.926Z,1.70
2017-12-14T12:00:58.691Z,1.77
2017-12-14T12:05:59.738Z,1.60
2017-12-14T12:11:00.811Z,1.97
2017-12-14T12:16:02.748Z,2.80
2017-12-14T12:21:03.785Z,1.57
2017-12-14T12:26:04.793Z,1.93
2017-12-14T12:31:06.564Z,2.23
2017-12-14T12:36:07.572Z,2.20
2017-12-14T12:41:08.613Z,1.90
2017-12-14T12:46:09.588Z,2.17
2017-12-14T12:51:10.593Z,1.90
2017-12-14T12:56:11.666Z,1.57
2017-12-14T13:01:12.653Z,2.10
2017-12-14T13:06:13.656Z,2.17
2017-12-14T13:11:14.657Z,1.63
2017-12-14T13:16:16.382Z,2.10
2017-12-14T13:21:17.354Z,1.60
2017-12-14T13:26:18.370Z,2.50
2017-12-14T13:31:19.395Z,2.03
2017-12-14T13:36:20.450Z,1.60
2017-12-14T13:41:21.498Z,1.70
2017-12-14T13:46:22.489Z,1.67
2017-12-14T13:51:23.504Z,2.30
2017-12-14T13:56:24.533Z,1.37
2017-12-14T14:01:25.515Z,2.30
2017-12-14T14:06:26.532Z,1.80
2017-12-14T14:11:27.565Z,1.53
2017-12-14T14:16:28.561Z,1.60
2017-12-14T14:21:29.576Z,1.70
2017-12-14T14:26:30.572Z,1.70
2017-12-14T14:31:31.625Z,2.17
2017-12-14T14:36:32.585Z,2.10
2017-12-14T14:41:33.600Z,2.10
2017-12-14T14:46:34.612Z,1.83
2017-12-14T14:51:35.709Z,1.47
2017-12-14T14:56:37.490Z,1.80
2017-12-14T15:01:38.502Z,2.50
2017-12-14T15:06:40.293Z,1.30
2017-12-14T15:11:42.014Z,1.80
2017-12-14T15:16:43.765Z,1.53
2017-12-14T15:21:44.781Z,1.87
2017-12-14T15:26:45.809Z,1.80
2017-12-14T15:31:46.821Z,2.17
2017-12-14T15:36:48.553Z,2.00
2017-12-14T15:41:49.578Z,2.03
2017-12-14T15:46:50.617Z,2.20
2017-12-14T15:51:51.684Z,2.10
2017-12-14T15:56:52.690Z,1.53
2017-12-14T16:01:54.469Z,1.50
2017-12-14T16:06:55.465Z,1.53
2017-12-14T16:11:56.444Z,1.70
2017-12-14T16:16:58.168Z,1.80
2017-12-14T16:21:59.250Z,2.30
2017-12-14T16:27:00.387Z,1.87
2017-12-14T16:32:01.391Z,1.77
2017-12-14T16:37:03.137Z,2.00
2017-12-14T16:42:04.144Z,1.60
2017-12-14T16:47:05.205Z,1.63
2017-12-14T16:52:06.225Z,1.87
2017-12-14T16:57:07.201Z,1.97
2017-12-14T17:02:08.185Z,1.40
2017-12-14T17:07:09.218Z,1.80
2017-12-14T17:12:11.019Z,1.80
2017-12-14T17:17:11.996Z,1.63
2017-12-14T17:22:12.968Z,1.83
2017-12-14T17:27:13.945Z,2.57
2017-12-14T17:32:15.708Z,1.63
2017-12-14T17:37:16.742Z,1.70
2017-12-14T17:42:18.491Z,1.60
2017-12-14T17:47:19.484Z,1.77
2017-12-14T17:52:20.465Z,1.20
2017-12-14T17:57:21.452Z,1.40
2017-12-14T18:02:22.521Z,1.10
2017-12-14T18:07:24.532Z,1.13
2017-12-14T18:12:25.524Z,1.20
2017-12-14T18:17:26.632Z,4.50
2017-12-14T18:22:28.365Z,1.90
2017-12-14T18:27:29.357Z,2.00
2017-12-14T18:32:30.389Z,2.30
2017-12-14T18:37:32.126Z,1.60
2017-12-14T18:42:33.142Z,2.60
2017-12-14T18:47:34.223Z,2.37
2017-12-14T18:52:35.296Z,2.70
2017-12-14T18:57:36.349Z,3.70
2017-12-14T19:02:38.113Z,3.57
2017-12-14T19:07:39.265Z,1.40
2017-12-14T19:12:40.316Z,5.43
2017-12-14T19:17:42.069Z,2.47
2017-12-14T19:22:43.105Z,1.80
2017-12-14T19:27:44.098Z,2.60
2017-12-14T19:32:45.136Z,2.10
2017-12-14T19:37:46.452Z,2.83
2017-12-14T19:42:47.504Z,2.90
2017-12-14T19:47:48.473Z,1.63
2017-12-14T19:52:49.437Z,1.57
2017-12-14T19:57:50.442Z,2.10
2017-12-14T20:02:51.449Z,4.40
2017-12-14T20:07:52.396Z,2.30
2017-12-14T20:12:56.646Z,2.40
2017-12-14T20:17:59.131Z,2.50
2017-12-14T20:23:00.177Z,2.77
2017-12-14T20:28:02.623Z,3.40
2017-12-14T20:33:04.752Z,5.30
2017-12-14T20:38:06.447Z,3.40
2017-12-14T20:43:08.339Z,2.63
2017-12-14T20:48:09.305Z,4.13
2017-12-14T20:53:11.001Z,2.13
2017-12-14T20:58:12.069Z,2.40
2017-12-14T21:03:13.098Z,2.83
2017-12-14T21:08:14.185Z,2.17
2017-12-14T21:13:15.132Z,2.63
2017-12-14T21:18:16.097Z,3.10
2017-12-14T21:23:17.064Z,3.20
2017-12-14T21:28:18.057Z,4.27
2017-12-14T21:33:19.065Z,3.10
2017-12-14T21:38:20.781Z,3.67
2017-12-14T21:43:21.781Z,2.90
2017-12-14T21:48:22.850Z,2.93
2017-12-14T21:53:23.832Z,3.03
2017-12-14T21:58:24.881Z,2.73
2017-12-14T22:03:25.869Z,2.70
2017-12-14T22:08:26.828Z,3.57
2017-12-14T22:13:27.810Z,2.80
2017-12-14T22:18:28.787Z,2.67
2017-12-14T22:23:29.781Z,2.57
2017-12-14T22:28:30.748Z,2.50
2017-12-14T22:33:31.734Z,2.00
2017-12-14T22:38:32.701Z,2.10
2017-12-14T22:43:33.658Z,2.70
2017-12-14T22:48:34.621Z,3.20
2017-12-14T22:53:36.332Z,3.60
2017-12-14T22:58:37.329Z,3.60
2017-12-14T23:03:38.310Z,3.37
2017-12-14T23:08:39.282Z,3.70
2017-12-14T23:13:40.261Z,3.37
2017-12-14T23:18:41.320Z,3.30
2017-12-14T23:23:43.074Z,2.90
2017-12-14T23:28:44.060Z,2.23
2017-12-14T23:33:45.060Z,2.40
2017-12-14T23:38:46.048Z,2.83
2017-12-14T23:43:47.033Z,2.40
2017-12-14T23:48:48.025Z,3.10
2017-12-14T23:53:49.020Z,2.20
2017-12-14T23:58:49.988Z,2.43
